createdAt,value
2023-04-16T00:00:39.523Z,98.46
2023-04-16T00:03:09.301Z,98.45
2023-04-16T00:05:36.255Z,99.67
2023-04-16T00:08:06.105Z,99.61
2023-04-16T00:10:33.020Z,96.49
2023-04-16T00:12:59.794Z,97.61
2023-04-16T00:15:26.584Z,98.28
2023-04-16T00:17:56.276Z,95.75
2023-04-16T00:20:23.048Z,95.25
2023-04-16T00:22:59.968Z,98.67
2023-04-16T00:25:26.705Z,100.00
2023-04-16T00:27:53.505Z,100.00
2023-04-16T00:30:20.246Z,98.61
2023-04-16T00:32:49.883Z,100.00
2023-04-16T00:35:16.729Z,99.00
2023-04-16T00:37:43.511Z,96.92
2023-04-16T00:40:10.633Z,99.58
2023-04-16T00:42:37.379Z,99.62
2023-04-16T00:45:05.620Z,100.00
2023-04-16T00:47:32.429Z,100.00
2023-04-16T00:49:59.513Z,99.41
2023-04-16T00:52:27.602Z,98.46
2023-04-16T00:54:58.223Z,97.69
2023-04-16T00:57:24.991Z,96.77
2023-04-16T00:59:59.458Z,96.38
2023-04-16T01:02:29.235Z,97.86
2023-04-16T01:05:01.909Z,99.78
2023-04-16T01:07:40.640Z,97.72
2023-04-16T01:10:07.905Z,97.02
2023-04-16T01:12:34.668Z,95.05
2023-04-16T01:15:01.522Z,93.65
2023-04-16T01:17:28.311Z,91.90
2023-04-16T01:19:59.324Z,91.32
2023-04-16T01:22:28.945Z,89.96
2023-04-16T01:25:06.303Z,90.26
2023-04-16T01:27:45.251Z,89.43
2023-04-16T01:30:15.032Z,90.71
2023-04-16T01:32:42.128Z,90.71
2023-04-16T01:35:09.001Z,92.28
2023-04-16T01:37:35.757Z,94.00
2023-04-16T01:40:06.679Z,94.86
2023-04-16T01:42:33.536Z,94.73
2023-04-16T01:45:00.295Z,94.96
2023-04-16T01:50:11.462Z,92.78
2023-04-16T01:52:40.915Z,94.24
2023-04-16T01:55:08.985Z,94.28
2023-04-16T01:57:35.741Z,95.65
2023-04-16T02:00:03.428Z,95.09
2023-04-16T02:02:33.164Z,95.90
2023-04-16T02:04:59.986Z,96.84
2023-04-16T02:07:29.836Z,95.29
2023-04-16T02:09:56.558Z,94.59
2023-04-16T02:12:23.268Z,92.49
2023-04-16T02:15:13.411Z,91.57
2023-04-16T02:17:40.264Z,95.11
2023-04-16T02:20:07.682Z,96.17
2023-04-16T02:22:35.212Z,93.83
2023-04-16T02:25:01.935Z,94.11
2023-04-16T02:27:28.692Z,93.75
2023-04-16T02:29:55.465Z,92.11
2023-04-16T02:32:22.300Z,93.35
2023-04-16T02:34:49.077Z,94.88
2023-04-16T02:37:15.879Z,96.18
2023-04-16T02:39:42.602Z,95.88
2023-04-16T02:42:09.370Z,95.48
2023-04-16T02:44:36.117Z,94.58
2023-04-16T02:47:14.767Z,91.96
2023-04-16T02:49:51.552Z,91.72
2023-04-16T02:52:21.486Z,91.46
2023-04-16T02:54:48.246Z,91.08
2023-04-16T02:57:17.737Z,90.33
2023-04-16T02:59:45.324Z,91.44
2023-04-16T03:02:17.740Z,93.43
2023-04-16T03:05:10.602Z,95.26
2023-04-16T03:07:40.859Z,96.82
2023-04-16T03:10:08.661Z,95.43
2023-04-16T03:12:36.056Z,94.43
2023-04-16T03:15:06.234Z,93.69
2023-04-16T03:17:33.198Z,92.63
2023-04-16T03:20:00.189Z,95.07
2023-04-16T03:22:32.132Z,95.37
2023-04-16T03:24:58.929Z,94.71
2023-04-16T03:27:31.996Z,93.39
2023-04-16T03:29:58.797Z,92.93
2023-04-16T03:32:25.953Z,94.44
2023-04-16T03:34:52.787Z,94.85
2023-04-16T03:37:30.071Z,95.12
2023-04-16T03:40:02.698Z,95.19
2023-04-16T03:42:29.448Z,95.51
2023-04-16T03:44:56.184Z,94.45
2023-04-16T03:47:25.777Z,94.42
2023-04-16T03:49:57.084Z,94.24
2023-04-16T03:52:23.833Z,96.29
2023-04-16T03:54:59.697Z,95.25
2023-04-16T03:57:35.567Z,93.87
2023-04-16T04:00:02.496Z,97.38
2023-04-16T04:02:29.444Z,97.96
2023-04-16T04:04:56.472Z,98.49
2023-04-16T04:07:27.892Z,98.58
2023-04-16T04:09:57.295Z,98.13
2023-04-16T04:12:24.184Z,96.70
2023-04-16T04:14:50.940Z,97.45
2023-04-16T04:17:23.164Z,95.43
2023-04-16T04:20:01.205Z,95.53
2023-04-16T04:22:28.589Z,95.94
2023-04-16T04:24:55.381Z,94.03
2023-04-16T04:27:31.701Z,94.69
2023-04-16T04:29:58.507Z,97.21
2023-04-16T04:32:27.343Z,96.79
2023-04-16T04:34:54.231Z,94.98
2023-04-16T04:37:27.171Z,95.17
2023-04-16T04:39:56.731Z,95.39
2023-04-16T04:42:23.581Z,94.62
2023-04-16T04:44:50.365Z,94.79
2023-04-16T04:47:17.148Z,95.06
2023-04-16T04:49:48.750Z,93.13
2023-04-16T04:52:15.684Z,95.26
2023-04-16T04:54:42.611Z,94.71
2023-04-16T04:57:12.056Z,96.93
2023-04-16T04:59:46.740Z,96.67
2023-04-16T05:02:13.753Z,96.75
2023-04-16T05:04:42.321Z,96.76
2023-04-16T05:07:20.715Z,93.63
2023-04-16T05:09:53.066Z,92.92
2023-04-16T05:12:19.793Z,91.89
2023-04-16T05:14:48.278Z,93.46
2023-04-16T05:17:15.028Z,92.86
2023-04-16T05:19:54.875Z,90.70
2023-04-16T05:22:30.481Z,90.49
2023-04-16T05:24:57.254Z,91.13
2023-04-16T05:27:26.714Z,89.84
2023-04-16T05:29:56.373Z,89.92
2023-04-16T05:34:58.280Z,90.68
2023-04-16T05:37:33.080Z,91.20
2023-04-16T05:40:02.677Z,90.74
2023-04-16T05:42:36.333Z,90.33
2023-04-16T05:45:10.887Z,89.98
2023-04-16T05:47:40.024Z,90.56
2023-04-16T05:50:14.715Z,89.93
2023-04-16T05:52:42.077Z,88.92
2023-04-16T05:55:13.134Z,90.09
2023-04-16T05:57:50.963Z,89.27
2023-04-16T06:00:29.463Z,90.41
2023-04-16T06:03:04.018Z,89.44
2023-04-16T06:05:31.297Z,89.90
2023-04-16T06:07:58.578Z,87.00
2023-04-16T06:10:25.432Z,86.46
2023-04-16T06:12:52.191Z,86.88
2023-04-16T06:15:24.549Z,87.06
2023-04-16T06:18:01.239Z,84.76
2023-04-16T06:20:36.668Z,84.31
2023-04-16T06:23:17.714Z,84.43
2023-04-16T06:25:48.091Z,84.60
2023-04-16T06:28:17.336Z,83.98
2023-04-16T06:30:44.744Z,85.00
2023-04-16T06:33:12.054Z,84.01
2023-04-16T06:35:41.978Z,83.35
2023-04-16T06:38:12.050Z,83.39
2023-04-16T06:40:47.552Z,83.20
2023-04-16T06:43:17.322Z,82.63
2023-04-16T06:45:47.425Z,81.32
2023-04-16T06:48:18.068Z,79.78
2023-04-16T06:50:50.641Z,79.46
2023-04-16T06:53:19.131Z,78.43
2023-04-16T06:55:45.822Z,77.55
2023-04-16T06:58:15.391Z,76.71
2023-04-16T07:00:42.129Z,77.20
2023-04-16T07:03:12.278Z,78.57
2023-04-16T07:05:45.551Z,76.88
2023-04-16T07:08:12.340Z,77.11
2023-04-16T07:10:39.224Z,75.01
2023-04-16T07:13:06.008Z,74.55
2023-04-16T07:15:32.778Z,74.22
2023-04-16T07:18:06.404Z,74.71
2023-04-16T07:20:36.268Z,75.09
2023-04-16T07:23:03.149Z,73.37
2023-04-16T07:25:32.900Z,72.05
2023-04-16T07:27:59.657Z,71.89
2023-04-16T07:30:26.513Z,70.23
2023-04-16T07:32:53.353Z,69.71
2023-04-16T07:35:22.549Z,70.36
2023-04-16T07:40:32.794Z,72.72
2023-04-16T07:43:10.648Z,73.24
2023-04-16T07:45:41.272Z,71.54
2023-04-16T07:48:08.667Z,69.75
2023-04-16T07:53:15.936Z,69.25
2023-04-16T07:55:45.832Z,67.84
2023-04-16T07:58:12.585Z,67.68
2023-04-16T08:00:39.838Z,69.12
2023-04-16T08:03:12.643Z,68.60
2023-04-16T08:05:42.705Z,69.43
2023-04-16T08:08:12.666Z,66.98
2023-04-16T08:10:42.587Z,66.88
2023-04-16T08:13:15.409Z,67.23
2023-04-16T08:15:43.680Z,67.31
2023-04-16T08:18:10.503Z,68.21
2023-04-16T08:20:50.373Z,68.27
2023-04-16T08:23:21.855Z,69.51
2023-04-16T08:25:48.596Z,68.61
2023-04-16T08:28:20.537Z,67.68
2023-04-16T08:30:49.418Z,69.37
2023-04-16T08:33:24.207Z,67.64
2023-04-16T08:35:50.996Z,66.61
2023-04-16T08:38:20.596Z,67.39
2023-04-16T08:40:48.630Z,68.52
2023-04-16T08:43:18.065Z,66.53
2023-04-16T08:45:47.943Z,65.50
2023-04-16T08:48:15.510Z,67.74
2023-04-16T08:50:52.719Z,66.10
2023-04-16T08:53:40.302Z,65.60
2023-04-16T08:56:14.259Z,66.37
2023-04-16T08:58:41.362Z,66.37
2023-04-16T09:01:10.081Z,65.50
2023-04-16T09:03:37.134Z,66.01
2023-04-16T09:06:07.742Z,66.28
2023-04-16T09:08:38.272Z,66.33
2023-04-16T09:11:07.767Z,65.90
2023-04-16T09:13:45.729Z,67.10
2023-04-16T09:16:21.412Z,65.70
2023-04-16T09:18:48.270Z,63.21
2023-04-16T09:21:23.902Z,64.55
2023-04-16T09:23:53.425Z,64.51
2023-04-16T09:26:23.901Z,63.90
2023-04-16T09:28:53.668Z,63.16
2023-04-16T09:31:32.746Z,63.87
2023-04-16T09:34:12.152Z,63.92
2023-04-16T09:36:41.565Z,64.26
2023-04-16T09:39:19.477Z,63.35
2023-04-16T09:41:53.696Z,64.64
2023-04-16T09:44:20.552Z,64.10
2023-04-16T09:46:56.992Z,62.81
2023-04-16T09:49:26.632Z,61.40
2023-04-16T09:51:54.676Z,58.97
2023-04-16T09:54:35.167Z,58.48
2023-04-16T09:57:01.903Z,56.32
2023-04-16T09:59:28.650Z,57.58
2023-04-16T10:02:14.698Z,57.65
2023-04-16T10:04:46.712Z,56.59
2023-04-16T10:07:13.498Z,56.09
2023-04-16T10:09:41.135Z,57.20
2023-04-16T10:12:14.461Z,55.62
2023-04-16T10:14:42.079Z,55.17
2023-04-16T10:19:54.876Z,55.48
2023-04-16T10:22:25.502Z,54.72
2023-04-16T10:24:53.315Z,57.42
2023-04-16T10:27:22.996Z,57.11
2023-04-16T10:29:52.461Z,58.01
2023-04-16T10:32:20.190Z,57.76
2023-04-16T10:34:52.731Z,56.86
2023-04-16T10:37:32.569Z,57.16
2023-04-16T10:39:59.651Z,57.40
2023-04-16T10:42:35.073Z,57.13
2023-04-16T10:45:01.829Z,57.27
2023-04-16T10:47:31.596Z,56.92
2023-04-16T10:49:58.522Z,56.61
2023-04-16T10:52:29.671Z,57.04
2023-04-16T10:54:59.743Z,56.17
2023-04-16T10:57:32.067Z,54.50
2023-04-16T11:00:02.019Z,54.75
2023-04-16T11:02:37.450Z,52.38
2023-04-16T11:05:04.752Z,52.47
2023-04-16T11:07:36.158Z,54.28
2023-04-16T11:10:07.613Z,54.96
2023-04-16T11:12:48.424Z,54.85
2023-04-16T11:15:16.800Z,55.10
2023-04-16T11:17:47.513Z,55.01
2023-04-16T11:20:24.344Z,50.05
2023-04-16T11:23:00.005Z,48.68
2023-04-16T11:25:32.374Z,50.63
2023-04-16T11:28:04.882Z,48.21
2023-04-16T11:30:36.855Z,48.41
2023-04-16T11:33:09.164Z,48.54
2023-04-16T11:35:35.936Z,48.47
2023-04-16T11:38:06.158Z,48.60
2023-04-16T11:40:35.976Z,46.47
2023-04-16T11:43:12.916Z,47.62
2023-04-16T11:45:53.743Z,48.69
2023-04-16T11:48:20.566Z,48.05
2023-04-16T11:51:02.941Z,48.70
2023-04-16T11:53:39.620Z,47.79
2023-04-16T11:56:06.830Z,47.77
2023-04-16T11:58:33.567Z,48.83
2023-04-16T12:01:01.938Z,48.46
2023-04-16T12:03:39.769Z,46.67
2023-04-16T12:06:09.902Z,48.17
2023-04-16T12:08:36.749Z,46.28
2023-04-16T12:11:03.513Z,46.66
2023-04-16T12:13:34.364Z,48.33
2023-04-16T12:16:02.358Z,47.72
2023-04-16T12:18:29.157Z,45.78
2023-04-16T12:20:55.964Z,46.30
2023-04-16T12:23:32.583Z,45.91
2023-04-16T12:26:10.258Z,45.49
2023-04-16T12:28:37.830Z,46.78
2023-04-16T12:31:08.732Z,47.23
2023-04-16T12:33:35.467Z,48.55
2023-04-16T12:36:16.648Z,47.57
2023-04-16T12:38:43.397Z,45.99
2023-04-16T12:41:10.193Z,45.67
2023-04-16T12:43:37.108Z,44.93
2023-04-16T12:46:04.423Z,44.04
2023-04-16T12:48:31.367Z,43.16
2023-04-16T12:50:58.132Z,45.74
2023-04-16T12:53:24.865Z,41.53
2023-04-16T12:55:51.637Z,41.49
2023-04-16T12:58:21.380Z,42.25
2023-04-16T13:00:50.748Z,41.32
2023-04-16T13:03:20.620Z,41.16
2023-04-16T13:05:50.664Z,42.02
2023-04-16T13:08:20.350Z,41.67
2023-04-16T13:10:50.148Z,41.73
2023-04-16T13:13:16.898Z,42.84
2023-04-16T13:15:45.893Z,42.74
2023-04-16T13:18:18.107Z,43.94
2023-04-16T13:20:44.879Z,44.06
2023-04-16T13:23:14.296Z,44.73
2023-04-16T13:25:43.557Z,43.90
2023-04-16T13:28:10.474Z,44.62
2023-04-16T13:30:40.356Z,45.91
2023-04-16T13:33:09.603Z,46.86
2023-04-16T13:35:36.320Z,45.41
2023-04-16T13:38:06.566Z,45.53
2023-04-16T13:40:38.974Z,46.10
2023-04-16T13:43:07.585Z,44.39
2023-04-16T13:45:34.532Z,44.27
2023-04-16T13:48:04.172Z,44.92
2023-04-16T13:50:31.259Z,45.07
2023-04-16T13:53:03.506Z,45.46
2023-04-16T13:55:33.296Z,45.24
2023-04-16T13:58:00.630Z,45.79
2023-04-16T14:00:33.576Z,45.77
2023-04-16T14:03:03.394Z,44.67
2023-04-16T14:05:30.279Z,44.20
2023-04-16T14:07:57.021Z,44.28
2023-04-16T14:10:23.771Z,44.19
2023-04-16T14:12:50.793Z,44.43
2023-04-16T14:15:17.788Z,44.83
2023-04-16T14:17:44.982Z,45.45
2023-04-16T14:20:13.475Z,45.40
2023-04-16T14:22:40.292Z,45.41
2023-04-16T14:25:07.390Z,45.93
2023-04-16T14:27:36.642Z,46.29
2023-04-16T14:30:04.066Z,46.67
2023-04-16T14:32:34.076Z,46.85
2023-04-16T14:35:01.016Z,45.43
2023-04-16T14:37:30.195Z,45.56
2023-04-16T14:40:01.566Z,46.50
2023-04-16T14:42:28.303Z,45.74
2023-04-16T14:44:55.026Z,45.27
2023-04-16T14:47:21.738Z,45.55
2023-04-16T14:49:55.815Z,45.15
2023-04-16T14:52:22.599Z,45.01
2023-04-16T14:54:49.339Z,44.54
2023-04-16T14:57:16.055Z,45.45
2023-04-16T14:59:50.313Z,47.20
2023-04-16T15:02:17.359Z,48.14
2023-04-16T15:04:44.305Z,47.73
2023-04-16T15:07:11.143Z,48.10
2023-04-16T15:09:40.603Z,48.66
2023-04-16T15:12:07.307Z,48.10
2023-04-16T15:14:49.649Z,48.59
2023-04-16T15:17:16.447Z,49.09
2023-04-16T15:19:45.300Z,48.74
2023-04-16T15:22:14.528Z,48.66
2023-04-16T15:24:41.295Z,48.82
2023-04-16T15:27:09.022Z,49.42
2023-04-16T15:29:40.805Z,48.87
2023-04-16T15:32:23.680Z,48.98
2023-04-16T15:34:51.101Z,49.33
2023-04-16T15:37:17.925Z,49.33
2023-04-16T15:39:48.799Z,49.41
2023-04-16T15:42:16.570Z,49.89
2023-04-16T15:44:51.875Z,50.00
2023-04-16T15:47:21.639Z,50.21
2023-04-16T15:49:57.230Z,50.10
2023-04-16T15:52:26.997Z,50.51
2023-04-16T15:54:57.735Z,50.07
2023-04-16T15:57:24.449Z,49.96
2023-04-16T16:00:06.017Z,50.40
2023-04-16T16:02:34.167Z,51.26
2023-04-16T16:05:03.992Z,50.67
2023-04-16T16:07:32.218Z,50.95
2023-04-16T16:09:59.054Z,50.26
2023-04-16T16:12:28.061Z,50.48
2023-04-16T16:14:55.527Z,50.55
2023-04-16T16:17:22.324Z,50.71
2023-04-16T16:19:49.051Z,50.36
2023-04-16T16:22:15.837Z,50.69
2023-04-16T16:24:42.714Z,51.02
2023-04-16T16:27:09.513Z,49.91
2023-04-16T16:29:41.006Z,50.58
2023-04-16T16:32:11.056Z,51.98
2023-04-16T16:34:40.841Z,50.75
2023-04-16T16:37:09.616Z,51.44
2023-04-16T16:39:38.663Z,51.69
2023-04-16T16:42:08.885Z,51.72
2023-04-16T16:44:37.034Z,51.21
2023-04-16T16:47:19.052Z,51.10
2023-04-16T16:49:45.747Z,51.28
2023-04-16T16:52:12.591Z,51.11
2023-04-16T16:54:39.351Z,51.40
2023-04-16T16:57:06.073Z,52.18
2023-04-16T16:59:32.808Z,52.38
2023-04-16T17:01:59.712Z,52.07
2023-04-16T17:04:27.620Z,52.23
2023-04-16T17:06:54.477Z,51.96
2023-04-16T17:09:23.769Z,53.08
2023-04-16T17:11:51.492Z,52.37
2023-04-16T17:14:18.297Z,52.17
2023-04-16T17:16:47.968Z,52.08
2023-04-16T17:19:14.763Z,53.48
2023-04-16T17:21:41.611Z,52.80
2023-04-16T17:24:08.451Z,53.12
2023-04-16T17:29:15.936Z,53.58
2023-04-16T17:31:43.974Z,54.08
2023-04-16T17:34:18.006Z,53.44
2023-04-16T17:36:44.737Z,53.68
2023-04-16T17:39:11.520Z,53.68
2023-04-16T17:41:38.241Z,54.36
2023-04-16T17:44:09.912Z,55.10
2023-04-16T17:46:41.548Z,55.60
2023-04-16T17:49:08.304Z,56.18
2023-04-16T17:51:35.104Z,56.89
2023-04-16T17:54:07.050Z,56.71
2023-04-16T17:56:33.642Z,57.33
2023-04-16T17:59:00.453Z,57.45
2023-04-16T18:01:30.066Z,57.49
2023-04-16T18:04:06.363Z,57.35
2023-04-16T18:06:33.200Z,56.59
2023-04-16T18:09:02.918Z,56.70
2023-04-16T18:11:31.145Z,56.21
2023-04-16T18:13:59.508Z,56.85
2023-04-16T18:16:30.336Z,56.60
2023-04-16T18:18:57.093Z,56.40
2023-04-16T18:21:23.836Z,57.11
2023-04-16T18:23:50.559Z,56.40
2023-04-16T18:26:22.426Z,56.87
2023-04-16T18:28:49.668Z,57.08
2023-04-16T18:31:21.171Z,57.28
2023-04-16T18:36:29.023Z,58.13
2023-04-16T18:39:07.848Z,58.58
2023-04-16T18:41:34.703Z,58.10
2023-04-16T18:44:09.256Z,58.48
2023-04-16T18:46:36.121Z,59.14
2023-04-16T18:49:12.295Z,58.92
2023-04-16T18:51:39.379Z,59.77
2023-04-16T18:54:06.192Z,60.04
2023-04-16T18:56:38.840Z,60.57
2023-04-16T18:59:05.629Z,61.11
2023-04-16T19:01:32.698Z,62.52
2023-04-16T19:03:59.494Z,62.79
2023-04-16T19:06:26.267Z,64.32
2023-04-16T19:08:53.040Z,65.20
2023-04-16T19:11:19.963Z,65.20
2023-04-16T19:13:52.070Z,66.43
2023-04-16T19:16:27.996Z,66.55
2023-04-16T19:18:54.791Z,66.46
2023-04-16T19:21:21.556Z,65.81
2023-04-16T19:23:48.335Z,64.84
2023-04-16T19:26:15.519Z,64.58
2023-04-16T19:28:42.484Z,65.06
2023-04-16T19:31:09.610Z,66.07
2023-04-16T19:33:36.391Z,66.53
2023-04-16T19:36:05.731Z,67.55
2023-04-16T19:38:32.517Z,66.93
2023-04-16T19:40:59.247Z,66.74
2023-04-16T19:43:25.994Z,67.07
2023-04-16T19:45:57.489Z,67.43
2023-04-16T19:48:31.951Z,66.88
2023-04-16T19:51:02.025Z,66.39
2023-04-16T19:53:28.748Z,67.05
2023-04-16T19:55:55.499Z,67.66
2023-04-16T19:58:24.507Z,67.15
2023-04-16T20:00:51.268Z,66.99
2023-04-16T20:03:24.162Z,66.29
2023-04-16T20:05:51.048Z,66.75
2023-04-16T20:08:17.939Z,67.59
2023-04-16T20:10:51.505Z,67.46
2023-04-16T20:13:21.735Z,68.14
2023-04-16T20:16:04.828Z,67.94
2023-04-16T20:18:31.425Z,68.23
2023-04-16T20:20:58.222Z,68.19
2023-04-16T20:23:34.991Z,68.90
2023-04-16T20:26:04.858Z,68.69
2023-04-16T20:28:31.653Z,69.44
2023-04-16T20:31:06.443Z,66.54
2023-04-16T20:33:34.534Z,65.82
2023-04-16T20:36:04.139Z,68.01
2023-04-16T20:38:34.271Z,68.39
2023-04-16T20:41:09.282Z,67.95
2023-04-16T20:43:45.385Z,67.93
2023-04-16T20:46:12.868Z,67.62
2023-04-16T20:48:39.717Z,66.11
2023-04-16T20:51:07.237Z,66.32
2023-04-16T20:53:33.990Z,68.23
2023-04-16T20:56:00.766Z,69.04
2023-04-16T20:58:29.029Z,69.27
2023-04-16T21:00:57.235Z,70.13
2023-04-16T21:03:24.661Z,71.38
2023-04-16T21:05:53.279Z,70.69
2023-04-16T21:08:21.432Z,71.69
2023-04-16T21:10:48.752Z,71.87
2023-04-16T21:13:15.691Z,71.56
2023-04-16T21:15:44.550Z,72.06
2023-04-16T21:18:14.694Z,72.69
2023-04-16T21:20:44.697Z,72.93
2023-04-16T21:23:11.621Z,72.34
2023-04-16T21:25:40.895Z,71.42
2023-04-16T21:28:27.739Z,72.11
2023-04-16T21:30:57.199Z,72.99
2023-04-16T21:33:23.980Z,73.24
2023-04-16T21:35:54.091Z,73.60
2023-04-16T21:38:21.817Z,73.65
2023-04-16T21:40:49.750Z,73.76
2023-04-16T21:43:17.595Z,73.66
2023-04-16T21:45:44.592Z,74.81
2023-04-16T21:48:20.690Z,75.59
2023-04-16T21:50:47.461Z,75.13
2023-04-16T21:53:26.098Z,76.00
2023-04-16T21:56:04.659Z,75.84
2023-04-16T21:58:34.396Z,75.10
2023-04-16T22:01:03.980Z,75.48
2023-04-16T22:03:32.546Z,76.20
2023-04-16T22:06:05.381Z,74.72
2023-04-16T22:08:35.234Z,74.45
2023-04-16T22:11:03.134Z,73.55
2023-04-16T22:13:33.576Z,75.15
2023-04-16T22:16:07.148Z,74.66
2023-04-16T22:18:34.781Z,72.94
2023-04-16T22:21:01.838Z,72.75
2023-04-16T22:23:31.105Z,72.23
2023-04-16T22:25:57.876Z,72.95
2023-04-16T22:28:24.613Z,73.42
2023-04-16T22:30:52.469Z,72.05
2023-04-16T22:33:19.210Z,72.49
2023-04-16T22:35:48.572Z,72.47
2023-04-16T22:38:22.298Z,72.49
2023-04-16T22:40:49.170Z,72.49
2023-04-16T22:43:15.907Z,72.44
2023-04-16T22:45:42.789Z,73.32
2023-04-16T22:48:15.801Z,72.50
2023-04-16T22:50:46.312Z,72.58
2023-04-16T22:53:16.267Z,72.83
2023-04-16T22:55:44.157Z,73.23
2023-04-16T22:58:10.882Z,73.04
2023-04-16T23:00:37.606Z,73.32
2023-04-16T23:03:07.375Z,72.25
2023-04-16T23:05:35.025Z,73.03
2023-04-16T23:08:03.875Z,72.62
2023-04-16T23:10:30.653Z,73.04
2023-04-16T23:12:57.489Z,72.19
2023-04-16T23:18:13.854Z,72.06
2023-04-16T23:20:43.122Z,72.04
2023-04-16T23:23:09.826Z,72.89
2023-04-16T23:25:41.022Z,72.26
2023-04-16T23:28:07.742Z,71.69
2023-04-16T23:30:45.157Z,71.83
2023-04-16T23:33:15.232Z,72.32
2023-04-16T23:35:44.195Z,72.17
2023-04-16T23:38:10.917Z,72.54
2023-04-16T23:40:37.620Z,72.50
2023-04-16T23:43:06.878Z,72.13
2023-04-16T23:45:42.320Z,72.30
2023-04-16T23:48:12.197Z,72.60
2023-04-16T23:50:45.163Z,72.97
2023-04-16T23:53:14.092Z,73.50
2023-04-16T23:55:40.898Z,72.60
2023-04-16T23:58:07.688Z,72.61
